Current Weather Network in the world 
cooperate with our weather  network
  
 
country list  
Weather now
21-09-20  15:12
Molinella (BO)  (Italy)  
27.4  C.     .;

 

If you want to participate in our meteorological network, fill in form data, and send us an  e_mail and we will activate your weather station in your country. You would to send your weather reporting, one or more times a day, through our website .. for examples insert
       
manual meteorological reports today      
Weather reporting today :
Romania: stazione meteo: Amara
13:15
PAESE CITTA'DATAORAT C.(m)VENTO (Km/h)PAPREC.STATO
AustriaInnsbruck21-09-2012:20 UTC233.09 ENE1015
AustriaLinz21-09-2012:20 UTC212.06 1016
AustriaVienna/Wien21-09-2012:20 UTC246.69 SE1017
AustriaSalisburgo/Salzsbu21-09-2012:20 UTC223.09 N1016
Belarus/BielorussiaMinsk21-09-2012:00 UTC194 W1021
Belarus/BielorussiaRiga21-09-2012:20 UTC173.6 SW1017
BulgariaSofia21-09-2012:00 UTC243.09 E1020
Belgium/BelgioBruxelles21-09-2012:20 UTC220.51 1016
Croatia/CroaziaZagabria/Zagreb21-09-2012:00 UTC252.06 SE1017
Croatia/CroaziaDubrovnik21-09-2012:00 UTC254.12 S1017
Croatia/CroaziaSpalato/Split21-09-2012:00 UTC293.09 ESE1015
Croatia/CroaziaPula21-09-2012:00 UTC252.57 1016
Croatia/CroaziaZara/Zadar21-09-2012:00 UTC284.63 WNW1016
Croazia/CroatiaFiume/Rijeka21-09-2012:00 UTC230 N1017
Czech RepublicPraga21-09-2012:00 UTC223.6 E1017
SlovakiaBratislava21-09-2012:30 UTC255.66 SE
BosniaSarajevo21-09-2012:00 UTC231.03 1017
Denmark/DanimarcaAlborg21-09-2012:20 UTC156.17 WSW1016
Denmark/DanimarcaEsbjerg21-09-2012:20 UTC151.03 WSW1018
Denmark/DanimarcaCopenaghen/Koeben.21-09-2012:20 UTC173.09 SSE1018
Finland/FinlandiaHelsinky21-09-2015:50 UTC-23.09 NE1021
Finland/FinlandiaOulu21-09-2012:20 UTC117.72 SW994
France/FranciaParigi/Paris21-09-2012:00 UTC242.06 NNE1016
France/FranciaNizza/Nices21-09-2012:00 UTC253.6 E1016
France/FranciaTrasburgo21-09-2012:00 UTC251.54 1015
France/FranciaMontepellier21-09-2012:00 UTC253.09 SSW1015
France/FranciaLione/Lyon21-09-2012:00 UTC243.6 NW1016
France/FranciaLilla21-09-2012:00 UTC233.09 N1016
France/FranciaBrest21-09-2012:00 UTC181.54 N1017
France/FranciaBordeaux21-09-2012:00 UTC232.57 WSW1016
France/FranciaMarsiglia/Marsei21-09-2012:00 UTC243.6 W1015
Germany/GermaniaAmburgo-fink21-09-2012:20 UTC221.54 E1017
Germany/GermaniaAmburgo-fuhl21-09-2012:20 UTC222.06 1017
Germany/GermaniaBerlin-sch21-09-2012:20 UTC242.57 SE1017
Germany/GermaniaBerlino-tegel21-09-2012:20 UTC242.06 SE1017
Germany/GermaniaMonaco21-09-2012:20 UTC222.57 NNE1016
Germany/GermaniaNonimberga21-09-2012:20 UTC231.54 W1016
Germany/GermaniaFrancoforte21-09-2012:20 UTC252.06 1015
Germany/GermaniaStoccarda21-09-2012:20 UTC251.03 1015
Germany/GermaniaHannover21-09-2012:20 UTC242.57 1016
Germany/GermaniaDusseldorf21-09-2012:20 UTC252.06 1015
ISReykjavik21-09-2012:00 UTC710.8 SSW995
Netherlands/Paesi baAmsterdam21-09-2012:25 UTC231.03 1016
Netherlands/Paesi BaRotterdam21-09-2012:25 UTC232.06 NE1016
Netherlands/Paesi BaGroninga/Groningen21-09-2012:25 UTC221.54 1016
Netherlands/Paesi baMaastrich21-09-2012:25 UTC232.06 NNE1015
Norway-NorvegiaOslo21-09-2012:20 UTC186.69 S1008
Norway-NorvegiaTrondheim21-09-2012:20 UTC133.09 W999
Norway-NorvegiaBergen21-09-2012:20 UTC126.69 S1011
Norway-NorvegiaBodo21-09-2012:20 UTC1022.12 SW982
Poland/PoloniaVarsavia/Warsawa21-09-2012:00 UTC233.6 ESE1019
Portugal-PortogalloLisbona/Lisboa21-09-2012:00 UTC233.6 E1020
Portugal-PortogalloFaro-airport21-09-2012:00 UTC254.12 SSW1018
Portugal-PortogalloPorto Santo21-09-2012:00 UTC244.63 SE1020
Portugal-PortogalloPorto/Pedras Rubra21-09-2012:00 UTC213.09 SW1020
RUSMosca21-09-2012:00 UTC149 WSW1015
Russian-RussiaSt.Peterburg21-09-2012:00 UTC168 W1010
RusVladivostok21-09-2012:00 UTC110 N1020
RomaniaBucarest21-09-2012:00 UTC252.06 SE1021
Spain/SpagnaMadrid/Barajas21-09-2012:00 UTC221.03 SW1019
Spain/SpagnaMadrid/Cuatro21-09-2012:00 UTC243.09 SW1019
Spain/SpagnaBarcellona21-09-2012:00 UTC235.14 E1016
Spain/SpagnaLa Couruna21-09-2012:00 UTC202.06 NNE1019
Spain/SpagnaAlmeria21-09-2012:00 UTC253.09 SSW1016
Spain/SpagnaValencia21-09-2012:00 UTC294.12 ESE1015
SpainIbiza21-09-2012:00 UTC275.14 SSW1015
Sweden-SveziaStockholm/Stoccolm21-09-2012:20 UTC185.14 SW1011
Sweden-SveziaGoteborg21-09-2010:20 UTC-20 N1012
Sweden-SveziaMalmo21-09-2012:20 UTC172.06 SW1018
Sweden-SveziaKiruna21-09-2012:20 UTC89.26 SW980
Sweden-SveziaSundsvall21-09-2012:20 UTC163.09 S1000
Sweden-SveziaJongkoping21-09-2012:20 UTC166.69 SW1015
Sweden-SveziaJongkoping21-09-2012:20 UTC166.69 SW1015
Sweden-SveziaJongkoping21-09-2012:20 UTC166.69 SW1015
Sweden-SveziaJongkoping21-09-2012:20 UTC166.69 SW1015
Sweden-SveziaJongkoping21-09-2012:20 UTC166.69 SW1015
Sweden-SveziaJongkoping21-09-2012:20 UTC166.69 SW1015
Ukraine/UcrainaLvov/l'viv21-09-2012:00 UTC242 S1021
Ukraine/UcrainaKijev21-09-2012:00 UTC212 WNW1023
United KingdomBelfast-airport21-09-2011:50 UTC124.12 SW1017
United KingdomBirmingham21-09-2012:20 UTC202.06 SE1018
United KingdomEdimburgo/Edimburg21-09-2012:20 UTC177.2 WSW1014
United KingdomLeeds21-09-2012:20 UTC176.17 W1017
United KingdomLiverpool21-09-2012:20 UTC192.57 W1018
United KingdomBristol21-09-2012:20 UTC211.54 1018
United KingdomPlymouth21-09-2015:20 UTC66.17 NW1018
GBLondra21-09-2012:20 UTC180 N1018
UngheriaBudapest21-09-2012:00 UTC265.14 SSE1019
United KingdomManchester-airport21-09-2012:20 UTC182.57 SW1018
yugoslaviaBelgrado/Beograd21-09-2012:00 UTC275.14 SE1018
21-09-2012:20 UTC302.57 1016
 

 .

. .
. . . .

informazioni e contatti

www.meteorete.it
by.A.Santagostini C.2001-2016
P.I.05250380960

Partecipa alla rete meteorologica

  
 Cerca Meteo  
Stazioni meteo AM
Satellite e Radar
Rete in GooGle Maps
stazioni meteorete
Schermo solare Meteorete e Davis
stazioni automatiche
stazioni AM
rete internazionale
stazioni estere
archivio articoli
citta fredde

i nostri amici
negozio meteorete
dati storici stazioni
clima e riscaldamento globale
progetto meteo nelle scuole
temperatura Media in Italia 1951-2000
galleria di immagini
noleggio webcam
servizi meteo gratuiti
meteorologia per le scuole elementari